createdAt,value
2018-06-09T00:02:25.449Z,18.30
2018-06-09T00:07:24.657Z,18.20
2018-06-09T00:09:53.963Z,18.20
2018-06-09T00:12:24.041Z,18.20
2018-06-09T00:14:54.581Z,18.10
2018-06-09T00:17:24.817Z,18.10
2018-06-09T00:19:54.796Z,18.10
2018-06-09T00:22:24.872Z,18.00
2018-06-09T00:24:54.249Z,18.00
2018-06-09T00:27:24.215Z,18.00
2018-06-09T00:29:53.593Z,18.00
2018-06-09T00:32:23.078Z,18.00
2018-06-09T00:34:52.762Z,18.00
2018-06-09T00:37:22.187Z,18.00
2018-06-09T00:39:51.559Z,18.00
2018-06-09T00:42:20.932Z,18.10
2018-06-09T00:44:50.239Z,18.10
2018-06-09T00:47:19.862Z,18.20
2018-06-09T00:49:49.253Z,18.20
2018-06-09T00:52:18.575Z,18.20
2018-06-09T00:54:48.052Z,18.20
2018-06-09T00:57:17.921Z,18.30
2018-06-09T00:59:47.280Z,18.30
2018-06-09T01:02:16.733Z,18.30
2018-06-09T01:04:46.230Z,18.30
2018-06-09T01:07:15.630Z,18.40
2018-06-09T01:09:44.998Z,18.40
2018-06-09T01:12:14.309Z,18.40
2018-06-09T01:14:43.737Z,18.40
2018-06-09T01:17:13.068Z,18.40
2018-06-09T01:22:11.421Z,18.40
2018-06-09T01:24:40.822Z,18.40
2018-06-09T01:27:10.219Z,18.40
2018-06-09T01:29:39.552Z,18.30
2018-06-09T01:32:08.967Z,18.40
2018-06-09T01:34:39.199Z,18.30
2018-06-09T01:37:09.089Z,18.30
2018-06-09T01:39:38.463Z,18.30
2018-06-09T01:42:07.829Z,18.30
2018-06-09T01:44:37.197Z,18.30
2018-06-09T01:47:06.618Z,18.30
2018-06-09T01:49:36.012Z,18.30
2018-06-09T01:52:05.350Z,18.20
2018-06-09T01:54:34.704Z,18.20
2018-06-09T01:57:04.120Z,18.20
2018-06-09T01:59:33.983Z,18.20
2018-06-09T02:02:04.122Z,18.10
2018-06-09T02:04:33.452Z,18.10
2018-06-09T02:07:02.806Z,18.10
2018-06-09T02:09:32.172Z,18.10
2018-06-09T02:12:01.547Z,18.10
2018-06-09T02:14:30.921Z,18.10
2018-06-09T02:17:00.273Z,18.00
2018-06-09T02:19:30.162Z,18.00
2018-06-09T02:21:59.497Z,17.90
2018-06-09T02:24:28.829Z,17.90
2018-06-09T02:26:58.121Z,17.90
2018-06-09T02:29:27.581Z,17.80
2018-06-09T02:31:56.952Z,17.80
2018-06-09T02:34:26.389Z,17.80
2018-06-09T02:36:55.905Z,17.80
2018-06-09T02:39:25.257Z,17.70
2018-06-09T02:41:55.128Z,17.70
2018-06-09T02:44:24.550Z,17.70
2018-06-09T02:46:53.872Z,17.70
2018-06-09T02:49:23.714Z,17.60
2018-06-09T02:51:53.144Z,17.70
2018-06-09T02:54:22.494Z,17.70
2018-06-09T02:56:51.944Z,17.60
2018-06-09T02:59:21.306Z,17.60
2018-06-09T03:01:50.700Z,17.60
2018-06-09T03:04:20.038Z,17.60
2018-06-09T03:06:49.931Z,17.60
2018-06-09T03:09:19.871Z,17.50
2018-06-09T03:11:49.279Z,17.50
2018-06-09T03:16:47.713Z,17.40
2018-06-09T03:19:18.089Z,17.40
2018-06-09T03:21:47.433Z,17.40
2018-06-09T03:24:16.767Z,17.40
2018-06-09T03:26:46.197Z,17.40
2018-06-09T03:29:15.599Z,17.40
2018-06-09T03:34:14.107Z,17.40
2018-06-09T03:36:43.427Z,17.40
2018-06-09T03:39:12.750Z,17.40
2018-06-09T03:41:42.110Z,17.40
2018-06-09T03:46:40.625Z,17.50
2018-06-09T03:49:09.958Z,17.50
2018-06-09T03:51:39.930Z,17.50
2018-06-09T03:54:09.236Z,17.50
2018-06-09T03:56:38.545Z,17.60
2018-06-09T03:59:08.400Z,17.60
2018-06-09T04:01:37.707Z,17.60
2018-06-09T04:04:07.158Z,17.70
2018-06-09T04:06:36.472Z,17.80
2018-06-09T04:09:08.412Z,17.90
2018-06-09T04:11:38.416Z,17.90
2018-06-09T04:16:36.845Z,18.00
2018-06-09T04:19:06.189Z,18.10
2018-06-09T04:21:35.701Z,18.20
2018-06-09T04:24:05.104Z,18.20
2018-06-09T04:26:34.432Z,18.30
2018-06-09T04:29:03.876Z,18.30
2018-06-09T04:31:33.231Z,18.40
2018-06-09T04:36:31.804Z,18.40
2018-06-09T04:39:01.156Z,18.40
2018-06-09T04:41:30.638Z,18.40
2018-06-09T04:44:00.008Z,18.50
2018-06-09T04:46:29.450Z,18.60
2018-06-09T04:51:27.864Z,18.60
2018-06-09T04:53:57.225Z,18.70
2018-06-09T04:56:26.676Z,18.70
2018-06-09T04:58:56.028Z,18.80
2018-06-09T05:01:25.422Z,18.80
2018-06-09T05:03:54.779Z,18.80
2018-06-09T05:06:24.163Z,18.80
2018-06-09T05:08:53.506Z,18.80
2018-06-09T05:11:22.865Z,18.80
2018-06-09T05:13:52.242Z,18.80
2018-06-09T05:16:21.565Z,18.80
2018-06-09T05:18:50.950Z,18.80
2018-06-09T05:23:49.387Z,18.80
2018-06-09T05:26:18.775Z,18.80
2018-06-09T05:28:48.201Z,18.80
2018-06-09T05:31:17.676Z,18.80
2018-06-09T05:36:16.161Z,18.90
2018-06-09T05:38:45.497Z,18.90
2018-06-09T05:41:14.886Z,18.90
2018-06-09T05:43:44.205Z,18.90
2018-06-09T05:46:13.787Z,18.90
2018-06-09T05:48:43.145Z,19.00
2018-06-09T05:51:12.520Z,19.00
2018-06-09T05:53:42.562Z,19.10
2018-06-09T05:56:12.686Z,19.10
2018-06-09T06:03:40.854Z,19.30
2018-06-09T06:06:10.206Z,19.30
2018-06-09T06:08:39.658Z,19.40
2018-06-09T06:11:09.056Z,19.50
2018-06-09T06:13:40.304Z,19.50
2018-06-09T06:16:09.684Z,19.60
2018-06-09T06:18:39.708Z,19.60
2018-06-09T06:21:19.158Z,19.70
2018-06-09T06:23:50.973Z,19.80
2018-06-09T06:28:50.346Z,20.00
2018-06-09T06:31:19.923Z,20.00
2018-06-09T06:33:50.353Z,20.10
2018-06-09T06:36:19.709Z,20.20
2018-06-09T06:38:49.071Z,20.30
2018-06-09T06:41:18.471Z,20.40
2018-06-09T06:43:47.834Z,20.50
2018-06-09T06:46:19.377Z,20.60
2018-06-09T06:48:49.085Z,20.70
2018-06-09T06:51:18.524Z,20.80
2018-06-09T06:53:48.098Z,20.80
2018-06-09T06:56:17.840Z,20.90
2018-06-09T06:59:00.489Z,20.90
2018-06-09T07:01:32.568Z,20.90
2018-06-09T07:04:04.487Z,21.00
2018-06-09T07:06:33.810Z,21.10
2018-06-09T07:09:03.392Z,21.10
2018-06-09T07:11:32.794Z,21.20
2018-06-09T07:14:02.202Z,21.30
2018-06-09T07:16:31.632Z,21.40
2018-06-09T07:19:01.858Z,21.50
2018-06-09T07:21:31.197Z,21.50
2018-06-09T07:24:08.294Z,21.60
2018-06-09T07:26:40.402Z,21.60
2018-06-09T07:29:09.894Z,21.70
2018-06-09T07:31:39.298Z,21.70
2018-06-09T07:34:08.823Z,21.90
2018-06-09T07:36:39.127Z,22.00
2018-06-09T07:39:09.507Z,22.10
2018-06-09T07:41:38.804Z,22.30
2018-06-09T07:44:08.165Z,22.30
2018-06-09T07:46:37.575Z,22.40
2018-06-09T07:49:06.991Z,22.40
2018-06-09T07:51:36.369Z,22.50
2018-06-09T07:54:05.784Z,22.50
2018-06-09T07:56:35.177Z,22.50
2018-06-09T07:59:04.654Z,22.60
2018-06-09T08:01:34.171Z,22.70
2018-06-09T08:04:03.597Z,22.90
2018-06-09T08:06:32.939Z,22.90
2018-06-09T08:09:02.265Z,23.10
2018-06-09T08:11:31.711Z,23.20
2018-06-09T08:14:01.217Z,23.30
2018-06-09T08:16:30.541Z,23.40
2018-06-09T08:19:00.693Z,23.50
2018-06-09T08:21:30.147Z,23.60
2018-06-09T08:23:59.442Z,23.70
2018-06-09T08:26:28.810Z,23.80
2018-06-09T08:28:58.180Z,24.00
2018-06-09T08:31:28.020Z,24.20
2018-06-09T08:33:57.402Z,24.40
2018-06-09T08:38:55.813Z,24.70
2018-06-09T08:41:25.251Z,24.80
2018-06-09T08:43:54.708Z,24.90
2018-06-09T08:46:24.059Z,24.90
2018-06-09T08:48:53.387Z,25.00
2018-06-09T08:51:22.739Z,25.10
2018-06-09T08:53:52.134Z,25.20
2018-06-09T08:56:22.102Z,25.20
2018-06-09T08:58:51.492Z,25.30
2018-06-09T09:01:22.542Z,25.30
2018-06-09T09:03:51.928Z,25.40
2018-06-09T09:06:23.052Z,25.30
2018-06-09T09:08:53.068Z,25.20
2018-06-09T09:11:22.450Z,25.20
2018-06-09T09:13:53.023Z,25.10
2018-06-09T09:16:22.559Z,25.10
2018-06-09T09:18:51.995Z,25.20
2018-06-09T09:21:21.913Z,25.40
2018-06-09T09:23:53.479Z,25.50
2018-06-09T09:26:23.613Z,25.60
2018-06-09T09:28:53.300Z,25.80
2018-06-09T09:31:22.853Z,25.80
2018-06-09T09:33:52.319Z,25.80
2018-06-09T09:36:23.193Z,25.80
2018-06-09T09:38:54.273Z,25.80
2018-06-09T09:41:24.361Z,25.80
2018-06-09T09:43:53.717Z,25.90
2018-06-09T09:46:25.888Z,26.00
2018-06-09T09:48:55.220Z,26.10
2018-06-09T09:51:25.940Z,26.10
2018-06-09T09:53:56.524Z,26.10
2018-06-09T09:56:25.808Z,26.10
2018-06-09T10:01:26.317Z,26.30
2018-06-09T10:03:57.124Z,26.30
2018-06-09T10:06:27.024Z,26.40
2018-06-09T10:08:56.421Z,26.50
2018-06-09T10:11:26.640Z,26.60
2018-06-09T10:13:57.126Z,26.80
2018-06-09T10:16:26.544Z,26.90
2018-06-09T10:18:55.922Z,27.00
2018-06-09T10:21:25.851Z,27.10
2018-06-09T10:23:55.375Z,27.20
2018-06-09T10:26:30.134Z,27.30
2018-06-09T10:28:59.577Z,27.30
2018-06-09T10:31:29.435Z,27.40
2018-06-09T10:33:58.816Z,27.60
2018-06-09T10:36:30.875Z,27.80
2018-06-09T10:39:00.305Z,28.00
2018-06-09T10:41:29.693Z,28.20
2018-06-09T10:43:58.976Z,28.30
2018-06-09T10:46:28.401Z,28.30
2018-06-09T10:48:57.851Z,28.30
2018-06-09T10:51:27.247Z,28.30
2018-06-09T10:53:56.756Z,28.40
2018-06-09T10:56:26.233Z,28.60
2018-06-09T10:58:55.759Z,28.80
2018-06-09T11:01:25.111Z,29.00
2018-06-09T11:03:54.524Z,29.20
2018-06-09T11:06:23.854Z,29.30
2018-06-09T11:08:53.396Z,29.30
2018-06-09T11:11:22.945Z,29.30
2018-06-09T11:13:52.394Z,29.30
2018-06-09T11:16:21.910Z,29.30
2018-06-09T11:18:51.266Z,29.40
2018-06-09T11:21:20.672Z,29.50
2018-06-09T11:23:50.002Z,29.60
2018-06-09T11:26:19.977Z,29.70
2018-06-09T11:28:49.417Z,29.80
2018-06-09T11:31:18.872Z,29.90
2018-06-09T11:33:48.264Z,30.00
2018-06-09T11:36:17.706Z,30.00
2018-06-09T11:38:47.820Z,30.10
2018-06-09T11:41:18.003Z,30.30
2018-06-09T11:43:47.588Z,30.50
2018-06-09T11:46:17.857Z,30.70
2018-06-09T11:48:47.951Z,31.00
2018-06-09T11:51:17.351Z,31.20
2018-06-09T11:53:46.841Z,31.50
2018-06-09T11:56:16.265Z,31.70
2018-06-09T11:58:46.032Z,32.00
2018-06-09T12:01:18.080Z,32.20
2018-06-09T12:03:47.975Z,32.50
2018-06-09T12:06:17.375Z,32.70
2018-06-09T12:08:46.943Z,32.80
2018-06-09T12:11:17.028Z,33.00
2018-06-09T12:13:46.380Z,33.30
2018-06-09T12:16:15.961Z,33.60
2018-06-09T12:18:45.461Z,34.10
2018-06-09T12:21:14.867Z,34.60
2018-06-09T12:23:44.230Z,35.40
2018-06-09T12:28:42.709Z,35.70
2018-06-09T12:31:12.063Z,35.50
2018-06-09T12:33:41.510Z,35.20
2018-06-09T12:36:10.879Z,35.20
2018-06-09T12:38:40.642Z,35.60
2018-06-09T12:41:10.234Z,36.10
2018-06-09T12:43:39.709Z,36.40
2018-06-09T12:46:09.238Z,36.60
2018-06-09T12:48:38.738Z,36.80
2018-06-09T12:51:10.432Z,36.90
2018-06-09T12:56:09.150Z,36.90
2018-06-09T12:58:39.609Z,36.90
2018-06-09T13:01:09.253Z,37.00
2018-06-09T13:06:10.869Z,37.10
2018-06-09T13:08:40.319Z,37.10
2018-06-09T13:11:09.672Z,37.00
2018-06-09T13:13:39.075Z,36.90
2018-06-09T13:16:08.391Z,36.80
2018-06-09T13:18:37.906Z,36.60
2018-06-09T13:21:07.399Z,36.40
2018-06-09T13:23:36.729Z,36.10
2018-06-09T13:26:06.220Z,35.90
2018-06-09T13:28:35.663Z,35.90
2018-06-09T13:31:05.023Z,35.90
2018-06-09T13:33:34.859Z,35.90
2018-06-09T13:41:02.499Z,35.10
2018-06-09T13:43:31.865Z,34.90
2018-06-09T13:46:01.305Z,34.70
2018-06-09T13:48:30.663Z,34.60
2018-06-09T13:53:28.969Z,34.90
2018-06-09T13:55:59.245Z,34.90
2018-06-09T13:58:28.597Z,34.90
2018-06-09T14:00:58.038Z,34.80
2018-06-09T14:03:27.472Z,34.60
2018-06-09T14:05:56.815Z,34.50
2018-06-09T14:10:55.543Z,34.40
2018-06-09T14:13:24.958Z,34.30
2018-06-09T14:15:54.578Z,34.10
2018-06-09T14:20:52.974Z,33.30
2018-06-09T14:23:22.352Z,32.80
2018-06-09T14:25:51.781Z,32.20
2018-06-09T14:28:21.104Z,31.50
2018-06-09T14:33:19.511Z,30.30
2018-06-09T14:35:49.634Z,29.70
2018-06-09T14:40:48.043Z,28.50
2018-06-09T14:43:17.494Z,28.00
2018-06-09T14:45:46.901Z,27.60
2018-06-09T14:48:16.269Z,27.30
2018-06-09T14:50:45.659Z,27.20
2018-06-09T14:53:15.007Z,27.10
2018-06-09T14:55:44.342Z,26.80
2018-06-09T14:58:13.687Z,26.40
2018-06-09T15:00:43.109Z,25.80
2018-06-09T15:03:12.506Z,25.10
2018-06-09T15:05:41.968Z,24.50
2018-06-09T15:08:12.034Z,24.00
2018-06-09T15:10:41.474Z,23.50
2018-06-09T15:15:39.941Z,22.60
2018-06-09T15:18:09.370Z,22.30
2018-06-09T15:23:07.938Z,21.90
2018-06-09T15:25:37.317Z,21.90
2018-06-09T15:28:06.799Z,21.80
2018-06-09T15:30:36.152Z,21.80
2018-06-09T15:33:05.636Z,21.70
2018-06-09T15:35:36.123Z,21.70
2018-06-09T15:38:05.506Z,21.60
2018-06-09T15:40:34.970Z,21.70
2018-06-09T15:43:04.808Z,21.90
2018-06-09T15:45:34.248Z,22.00
2018-06-09T15:48:03.607Z,22.20
2018-06-09T15:50:33.779Z,22.70
2018-06-09T15:53:03.163Z,23.40
2018-06-09T15:55:32.628Z,24.30
2018-06-09T15:58:02.095Z,25.30
2018-06-09T16:00:31.473Z,26.10
2018-06-09T16:03:00.885Z,26.70
2018-06-09T16:05:31.099Z,26.80
2018-06-09T16:08:03.320Z,26.80
2018-06-09T16:10:32.802Z,26.80
2018-06-09T16:13:02.957Z,26.80
2018-06-09T16:15:32.357Z,27.20
2018-06-09T16:18:01.752Z,27.90
2018-06-09T16:20:32.385Z,28.70
2018-06-09T16:23:01.766Z,29.00
2018-06-09T16:25:31.197Z,29.00
2018-06-09T16:28:00.495Z,28.90
2018-06-09T16:30:29.867Z,28.70
2018-06-09T16:32:59.348Z,28.50
2018-06-09T16:35:30.074Z,28.30
2018-06-09T16:37:59.883Z,28.00
2018-06-09T16:40:29.300Z,27.70
2018-06-09T16:42:59.081Z,27.30
2018-06-09T16:45:28.542Z,26.90
2018-06-09T16:47:57.938Z,26.60
2018-06-09T16:50:29.084Z,26.20
2018-06-09T16:52:58.405Z,25.90
2018-06-09T16:55:28.589Z,25.60
2018-06-09T16:57:58.959Z,25.40
2018-06-09T17:00:28.364Z,25.10
2018-06-09T17:02:57.864Z,24.90
2018-06-09T17:05:27.933Z,24.70
2018-06-09T17:07:57.317Z,24.60
2018-06-09T17:10:27.093Z,24.50
2018-06-09T17:12:57.304Z,24.50
2018-06-09T17:15:27.477Z,24.40
2018-06-09T17:17:56.821Z,24.40
2018-06-09T17:20:26.225Z,24.30
2018-06-09T17:22:55.564Z,24.30
2018-06-09T17:25:25.121Z,24.20
2018-06-09T17:27:55.939Z,24.10
2018-06-09T17:30:25.380Z,24.10
2018-06-09T17:32:54.693Z,24.00
2018-06-09T17:35:24.121Z,24.10
2018-06-09T17:37:53.421Z,24.10
2018-06-09T17:40:22.715Z,24.30
2018-06-09T17:42:52.228Z,24.50
2018-06-09T17:45:21.624Z,24.90
2018-06-09T17:47:51.006Z,25.20
2018-06-09T17:50:20.960Z,25.40
2018-06-09T17:52:50.452Z,25.70
2018-06-09T17:55:19.972Z,25.80
2018-06-09T17:57:49.608Z,25.90
2018-06-09T18:00:19.118Z,25.90
2018-06-09T18:02:48.549Z,25.80
2018-06-09T18:05:17.990Z,25.80
2018-06-09T18:07:47.384Z,25.70
2018-06-09T18:12:45.925Z,25.50
2018-06-09T18:15:15.367Z,25.30
2018-06-09T18:17:45.047Z,25.10
2018-06-09T18:20:15.615Z,25.00
2018-06-09T18:22:45.697Z,24.90
2018-06-09T18:27:44.074Z,24.60
2018-06-09T18:30:14.100Z,24.40
2018-06-09T18:32:43.649Z,24.30
2018-06-09T18:35:14.127Z,24.10
2018-06-09T18:37:44.862Z,24.00
2018-06-09T18:40:14.243Z,23.80
2018-06-09T18:42:43.641Z,23.70
2018-06-09T18:45:13.722Z,23.60
2018-06-09T18:47:43.165Z,23.50
2018-06-09T18:50:35.699Z,23.40
2018-06-09T18:53:09.895Z,23.30
2018-06-09T18:55:40.886Z,23.10
2018-06-09T18:58:15.873Z,23.00
2018-06-09T19:00:45.239Z,22.90
2018-06-09T19:03:15.399Z,22.70
2018-06-09T19:05:45.299Z,22.60
2018-06-09T19:08:15.112Z,22.50
2018-06-09T19:10:44.470Z,22.40
2018-06-09T19:13:14.633Z,22.30
2018-06-09T19:15:44.090Z,22.20
2018-06-09T19:18:13.678Z,22.10
2018-06-09T19:23:12.605Z,21.90
2018-06-09T19:25:47.131Z,21.80
2018-06-09T19:28:17.482Z,21.70
2018-06-09T19:30:48.350Z,21.60
2018-06-09T19:33:18.867Z,21.50
2018-06-09T19:35:49.047Z,21.50
2018-06-09T19:38:19.221Z,21.40
2018-06-09T19:40:49.876Z,21.40
2018-06-09T19:43:20.683Z,21.30
2018-06-09T19:45:50.559Z,21.30
2018-06-09T19:48:20.494Z,21.30
2018-06-09T19:50:50.362Z,21.20
2018-06-09T19:53:20.571Z,21.20
2018-06-09T19:55:52.420Z,21.10
2018-06-09T19:58:21.981Z,21.10
2018-06-09T20:00:51.345Z,21.10
2018-06-09T20:03:20.900Z,21.10
2018-06-09T20:05:50.417Z,21.10
2018-06-09T20:08:19.957Z,21.10
2018-06-09T20:10:49.452Z,21.10
2018-06-09T20:13:18.881Z,21.10
2018-06-09T20:15:48.535Z,21.00
2018-06-09T20:18:18.111Z,21.00
2018-06-09T20:20:47.524Z,21.00
2018-06-09T20:23:17.013Z,21.00
2018-06-09T20:25:46.502Z,21.00
2018-06-09T20:28:16.100Z,20.90
2018-06-09T20:30:45.662Z,20.90
2018-06-09T20:33:15.112Z,20.90
2018-06-09T20:35:44.654Z,20.90
2018-06-09T20:38:15.602Z,20.90
2018-06-09T20:40:45.130Z,20.90
2018-06-09T20:43:14.729Z,20.90
2018-06-09T20:45:44.197Z,20.90
2018-06-09T20:48:14.413Z,20.90
2018-06-09T20:50:43.848Z,20.90
2018-06-09T20:53:13.452Z,20.90
2018-06-09T20:55:42.962Z,20.90
2018-06-09T20:58:12.439Z,20.90
2018-06-09T21:00:41.861Z,20.90
2018-06-09T21:03:11.757Z,20.90
2018-06-09T21:05:41.418Z,20.90
2018-06-09T21:08:11.478Z,21.00
2018-06-09T21:10:41.010Z,21.00
2018-06-09T21:13:10.768Z,21.00
2018-06-09T21:15:40.513Z,21.00
2018-06-09T21:18:10.281Z,21.00
2018-06-09T21:20:39.928Z,21.00
2018-06-09T21:23:10.577Z,21.00
2018-06-09T21:25:40.281Z,21.00
2018-06-09T21:28:16.799Z,21.00
2018-06-09T21:30:50.763Z,21.00
2018-06-09T21:35:44.265Z,21.00
2018-06-09T21:40:49.411Z,20.90
2018-06-09T21:43:24.081Z,20.90
2018-06-09T21:45:53.726Z,20.90
2018-06-09T21:48:23.205Z,20.90
2018-06-09T21:50:54.038Z,20.90
2018-06-09T21:53:23.506Z,20.90
2018-06-09T21:55:53.006Z,20.90
2018-06-09T21:58:22.588Z,20.90
2018-06-09T22:00:52.048Z,20.90
2018-06-09T22:05:50.885Z,20.80
2018-06-09T22:08:20.405Z,20.70
2018-06-09T22:10:50.490Z,20.70
2018-06-09T22:13:20.022Z,20.70
2018-06-09T22:15:49.694Z,20.70
2018-06-09T22:18:19.389Z,20.70
2018-06-09T22:20:48.870Z,20.70
2018-06-09T22:23:18.526Z,20.70
2018-06-09T22:25:52.960Z,20.70
2018-06-09T22:28:22.484Z,20.70
2018-06-09T22:30:52.027Z,20.70
2018-06-09T22:33:21.678Z,20.70
2018-06-09T22:35:51.163Z,20.70
2018-06-09T22:38:21.173Z,20.70
2018-06-09T22:43:20.807Z,20.60
2018-06-09T22:45:50.163Z,20.70
2018-06-09T22:48:19.651Z,20.70
2018-06-09T22:50:49.179Z,20.70
2018-06-09T22:53:18.735Z,20.70
2018-06-09T22:55:48.069Z,20.70
2018-06-09T22:58:17.505Z,20.70
2018-06-09T23:00:49.785Z,20.70
2018-06-09T23:03:19.588Z,20.70
2018-06-09T23:05:49.024Z,20.70
2018-06-09T23:08:18.999Z,20.70
2018-06-09T23:10:48.656Z,20.60
2018-06-09T23:13:18.049Z,20.60
2018-06-09T23:15:47.490Z,20.60
2018-06-09T23:18:17.897Z,20.60
2018-06-09T23:20:47.262Z,20.60
2018-06-09T23:25:46.047Z,20.60
2018-06-09T23:28:15.592Z,20.60
2018-06-09T23:30:46.767Z,20.60
2018-06-09T23:33:16.176Z,20.60
2018-06-09T23:35:45.568Z,20.60
2018-06-09T23:38:15.190Z,20.50
2018-06-09T23:40:44.771Z,20.60
2018-06-09T23:43:14.192Z,20.50
2018-06-09T23:45:43.725Z,20.50
2018-06-09T23:48:13.206Z,20.50
2018-06-09T23:50:42.600Z,20.50
2018-06-09T23:53:12.262Z,20.50
2018-06-09T23:55:42.181Z,20.50
2018-06-09T23:58:11.768Z,20.50
